createdAt,value
2023-01-01T00:01:28.854Z,36.24
2023-01-01T00:03:57.373Z,35.68
2023-01-01T00:06:25.126Z,35.94
2023-01-01T00:09:14.650Z,35.61
2023-01-01T00:11:42.586Z,35.51
2023-01-01T00:14:12.440Z,35.48
2023-01-01T00:16:39.623Z,35.44
2023-01-01T00:19:06.267Z,35.34
2023-01-01T00:21:32.893Z,35.31
2023-01-01T00:23:59.451Z,35.28
2023-01-01T00:26:29.525Z,35.42
2023-01-01T00:29:01.788Z,35.26
2023-01-01T00:31:28.919Z,35.63
2023-01-01T00:33:56.254Z,35.25
2023-01-01T00:36:26.134Z,35.40
2023-01-01T00:38:53.165Z,35.10
2023-01-01T00:41:20.421Z,35.35
2023-01-01T00:43:47.483Z,35.11
2023-01-01T00:46:14.387Z,35.16
2023-01-01T00:48:41.736Z,35.18
2023-01-01T00:51:08.463Z,35.18
2023-01-01T00:53:35.794Z,35.04
2023-01-01T00:56:02.409Z,35.17
2023-01-01T00:58:29.258Z,34.99
2023-01-01T01:00:55.962Z,35.03
2023-01-01T01:03:29.163Z,34.85
2023-01-01T01:06:09.160Z,35.02
2023-01-01T01:08:38.417Z,34.77
2023-01-01T01:11:15.279Z,34.91
2023-01-01T01:13:47.668Z,35.03
2023-01-01T01:16:21.822Z,35.09
2023-01-01T01:18:52.029Z,34.80
2023-01-01T01:21:21.203Z,35.13
2023-01-01T01:23:48.748Z,34.72
2023-01-01T01:26:22.257Z,35.01
2023-01-01T01:28:50.376Z,34.85
2023-01-01T01:31:18.455Z,34.90
2023-01-01T01:33:46.537Z,35.05
2023-01-01T01:36:15.271Z,34.95
2023-01-01T01:38:42.296Z,34.83
2023-01-01T01:41:16.339Z,34.79
2023-01-01T01:43:57.554Z,34.87
2023-01-01T01:46:35.833Z,34.80
2023-01-01T01:49:14.419Z,34.80
2023-01-01T01:51:41.188Z,34.74
2023-01-01T01:54:12.824Z,34.85
2023-01-01T01:56:49.888Z,34.92
2023-01-01T01:59:19.029Z,35.00
2023-01-01T02:01:46.071Z,34.93
2023-01-01T02:04:13.302Z,34.94
2023-01-01T02:06:40.979Z,34.94
2023-01-01T02:09:09.029Z,34.90
2023-01-01T02:11:35.740Z,35.11
2023-01-01T02:16:36.747Z,35.03
2023-01-01T02:19:06.241Z,35.38
2023-01-01T02:21:39.734Z,35.62
2023-01-01T02:24:21.514Z,35.57
2023-01-01T02:27:01.418Z,35.32
2023-01-01T02:29:48.996Z,35.22
2023-01-01T02:32:34.360Z,35.34
2023-01-01T02:35:29.550Z,35.08
2023-01-01T02:38:25.993Z,35.00
2023-01-01T02:41:02.280Z,34.91
2023-01-01T02:43:28.883Z,34.99
2023-01-01T02:45:56.282Z,34.97
2023-01-01T02:48:40.481Z,34.64
2023-01-01T02:51:46.716Z,34.64
2023-01-01T02:54:19.214Z,34.84
2023-01-01T02:56:55.241Z,34.83
2023-01-01T02:59:52.962Z,34.86
2023-01-01T03:03:07.207Z,34.75
2023-01-01T03:05:59.282Z,34.46
2023-01-01T03:08:33.657Z,34.74
2023-01-01T03:11:09.938Z,34.64
2023-01-01T03:13:48.741Z,34.42
2023-01-01T03:16:15.362Z,34.69
2023-01-01T03:19:19.189Z,34.34
2023-01-01T03:21:52.155Z,34.42
2023-01-01T03:24:25.337Z,34.44
2023-01-01T03:26:57.643Z,34.38
2023-01-01T03:29:28.230Z,34.32
2023-01-01T03:31:58.748Z,34.42
2023-01-01T03:34:33.390Z,34.28
2023-01-01T03:37:06.675Z,34.42
2023-01-01T03:39:47.402Z,34.31
2023-01-01T03:42:29.703Z,34.22
2023-01-01T03:45:04.089Z,34.14
2023-01-01T03:47:31.497Z,34.25
2023-01-01T03:49:59.798Z,34.22
2023-01-01T03:52:36.225Z,34.04
2023-01-01T03:55:12.025Z,33.95
2023-01-01T03:57:50.700Z,34.07
2023-01-01T04:00:20.943Z,34.07
2023-01-01T04:02:50.919Z,33.77
2023-01-01T04:05:19.804Z,34.20
2023-01-01T04:10:17.709Z,34.02
2023-01-01T04:12:50.534Z,33.73
2023-01-01T04:15:24.635Z,33.97
2023-01-01T04:17:52.086Z,33.91
2023-01-01T04:20:19.555Z,34.22
2023-01-01T04:22:46.759Z,34.10
2023-01-01T04:25:14.695Z,34.11
2023-01-01T04:27:41.372Z,34.13
2023-01-01T04:30:10.940Z,33.94
2023-01-01T04:32:38.270Z,34.10
2023-01-01T04:35:06.327Z,33.89
2023-01-01T04:37:36.028Z,33.97
2023-01-01T04:40:03.340Z,33.69
2023-01-01T04:42:29.971Z,33.80
2023-01-01T04:44:56.705Z,33.82
2023-01-01T04:47:23.357Z,33.66
2023-01-01T04:49:49.979Z,34.01
2023-01-01T04:52:16.674Z,33.67
2023-01-01T04:54:43.385Z,33.69
2023-01-01T04:57:09.924Z,33.90
2023-01-01T04:59:36.674Z,33.88
2023-01-01T05:02:03.655Z,33.80
2023-01-01T05:04:30.630Z,33.53
2023-01-01T05:06:57.289Z,33.89
2023-01-01T05:09:23.966Z,33.72
2023-01-01T05:14:12.906Z,33.59
2023-01-01T05:16:40.978Z,33.69
2023-01-01T05:19:09.059Z,33.60
2023-01-01T05:21:39.731Z,33.82
2023-01-01T05:24:09.026Z,33.57
2023-01-01T05:26:38.884Z,33.73
2023-01-01T05:29:10.307Z,33.52
2023-01-01T05:31:42.291Z,33.71
2023-01-01T05:36:38.851Z,33.60
2023-01-01T05:39:07.091Z,33.67
2023-01-01T05:41:36.722Z,33.41
2023-01-01T05:44:06.459Z,33.75
2023-01-01T05:49:02.834Z,33.78
2023-01-01T05:53:58.347Z,33.39
2023-01-01T05:56:26.634Z,33.64
2023-01-01T05:58:53.459Z,33.14
2023-01-01T06:01:23.157Z,33.68
2023-01-01T06:03:51.499Z,33.64
2023-01-01T06:06:20.519Z,33.47
2023-01-01T06:08:51.746Z,33.23
2023-01-01T06:11:19.431Z,33.44
2023-01-01T06:13:46.444Z,33.50
2023-01-01T06:16:13.509Z,33.63
2023-01-01T06:18:40.918Z,33.25
2023-01-01T06:21:10.638Z,33.36
2023-01-01T06:23:37.274Z,33.25
2023-01-01T06:26:08.445Z,33.41
2023-01-01T06:28:35.282Z,33.46
2023-01-01T06:31:03.520Z,33.46
2023-01-01T06:33:30.742Z,33.39
2023-01-01T06:35:57.657Z,33.41
2023-01-01T06:38:24.509Z,33.50
2023-01-01T06:41:02.552Z,33.17
2023-01-01T06:43:31.263Z,33.42
2023-01-01T06:46:21.979Z,33.33
2023-01-01T06:48:51.095Z,33.40
2023-01-01T06:51:28.876Z,33.36
2023-01-01T06:53:59.164Z,33.49
2023-01-01T06:56:26.080Z,33.06
2023-01-01T06:58:52.763Z,33.38
2023-01-01T07:01:24.799Z,33.17
2023-01-01T07:03:52.906Z,33.36
2023-01-01T07:06:19.571Z,33.16
2023-01-01T07:08:47.057Z,33.19
2023-01-01T07:11:13.606Z,33.22
2023-01-01T07:13:40.441Z,33.29
2023-01-01T07:16:12.721Z,33.13
2023-01-01T07:18:40.694Z,33.25
2023-01-01T07:21:28.220Z,33.15
2023-01-01T07:23:56.453Z,33.33
2023-01-01T07:26:27.387Z,33.17
2023-01-01T07:28:54.538Z,33.45
2023-01-01T07:31:21.493Z,33.19
2023-01-01T07:33:48.433Z,33.19
2023-01-01T07:36:16.754Z,33.21
2023-01-01T07:38:43.406Z,33.32
2023-01-01T07:41:10.150Z,33.17
2023-01-01T07:43:36.911Z,33.33
2023-01-01T07:46:03.924Z,33.31
2023-01-01T07:48:34.761Z,33.28
2023-01-01T07:51:06.426Z,33.21
2023-01-01T07:53:33.011Z,33.27
2023-01-01T07:55:59.697Z,33.18
2023-01-01T07:58:26.290Z,32.98
2023-01-01T08:00:53.056Z,33.05
2023-01-01T08:03:19.733Z,33.09
2023-01-01T08:05:46.553Z,33.13
2023-01-01T08:08:13.144Z,33.38
2023-01-01T08:10:39.934Z,33.46
2023-01-01T08:13:08.844Z,33.42
2023-01-01T08:15:36.112Z,33.30
2023-01-01T08:18:05.124Z,33.59
2023-01-01T08:20:33.146Z,33.46
2023-01-01T08:23:07.169Z,33.38
2023-01-01T08:27:58.265Z,33.35
2023-01-01T08:30:25.135Z,33.27
2023-01-01T08:32:52.830Z,33.34
2023-01-01T08:35:19.508Z,33.20
2023-01-01T08:37:46.247Z,33.32
2023-01-01T08:40:13.828Z,33.27
2023-01-01T08:42:41.980Z,33.43
2023-01-01T08:45:09.838Z,33.35
2023-01-01T08:47:36.521Z,33.36
2023-01-01T08:50:03.529Z,33.38
2023-01-01T08:52:30.285Z,33.24
2023-01-01T08:54:56.994Z,33.21
2023-01-01T08:57:23.737Z,33.15
2023-01-01T08:59:50.487Z,33.45
2023-01-01T09:02:20.093Z,33.37
2023-01-01T09:04:46.947Z,33.29
2023-01-01T09:07:13.590Z,33.17
2023-01-01T09:09:40.257Z,33.18
2023-01-01T09:12:14.879Z,33.19
2023-01-01T09:14:41.645Z,33.31
2023-01-01T09:17:08.236Z,33.28
2023-01-01T09:19:35.293Z,33.14
2023-01-01T09:22:01.820Z,33.23
2023-01-01T09:24:28.572Z,33.21
2023-01-01T09:26:55.480Z,33.03
2023-01-01T09:29:22.097Z,33.08
2023-01-01T09:31:50.126Z,33.06
2023-01-01T09:34:18.170Z,33.29
2023-01-01T09:36:46.037Z,33.00
2023-01-01T09:39:15.599Z,32.95
2023-01-01T09:41:51.342Z,33.23
2023-01-01T09:44:42.984Z,33.15
2023-01-01T09:47:23.037Z,33.25
2023-01-01T09:49:52.336Z,32.97
2023-01-01T09:52:20.399Z,33.19
2023-01-01T09:55:03.351Z,33.07
2023-01-01T09:57:32.651Z,33.10
2023-01-01T10:00:00.448Z,33.07
2023-01-01T10:02:51.691Z,33.25
2023-01-01T10:05:38.718Z,33.22
2023-01-01T10:08:38.833Z,33.74
2023-01-01T10:11:47.505Z,34.43
2023-01-01T10:14:37.974Z,34.95
2023-01-01T10:17:21.466Z,35.48
2023-01-01T10:19:52.570Z,35.49
2023-01-01T10:22:34.539Z,35.29
2023-01-01T10:25:04.167Z,34.88
2023-01-01T10:27:36.182Z,34.86
2023-01-01T10:30:13.439Z,34.85
2023-01-01T10:32:40.963Z,34.64
2023-01-01T10:35:17.777Z,34.45
2023-01-01T10:37:45.080Z,34.51
2023-01-01T10:40:23.998Z,34.38
2023-01-01T10:42:53.374Z,34.35
2023-01-01T10:45:35.579Z,34.23
2023-01-01T10:48:14.484Z,34.30
2023-01-01T10:50:46.085Z,34.48
2023-01-01T10:53:22.105Z,34.39
2023-01-01T10:55:58.584Z,34.23
2023-01-01T10:58:46.875Z,34.20
2023-01-01T11:01:33.689Z,34.11
2023-01-01T11:04:09.325Z,34.25
2023-01-01T11:06:41.007Z,33.98
2023-01-01T11:09:20.873Z,34.02
2023-01-01T11:11:54.567Z,34.49
2023-01-01T11:14:25.898Z,35.14
2023-01-01T11:16:54.637Z,35.92
2023-01-01T11:19:29.052Z,36.21
2023-01-01T11:21:56.089Z,36.38
2023-01-01T11:24:26.474Z,36.37
2023-01-01T11:26:55.126Z,36.54
2023-01-01T11:29:27.929Z,36.52
2023-01-01T11:31:59.360Z,36.86
2023-01-01T11:34:37.000Z,36.87
2023-01-01T11:37:28.551Z,36.77
2023-01-01T11:39:58.720Z,36.35
2023-01-01T11:42:28.758Z,36.28
2023-01-01T11:45:00.341Z,36.17
2023-01-01T11:47:27.545Z,36.66
2023-01-01T11:50:05.874Z,36.70
2023-01-01T11:52:39.962Z,37.08
2023-01-01T11:55:32.069Z,37.27
2023-01-01T11:57:58.902Z,37.15
2023-01-01T12:00:25.576Z,37.53
2023-01-01T12:05:37.659Z,37.10
2023-01-01T12:08:10.639Z,36.95
2023-01-01T12:10:49.100Z,37.01
2023-01-01T12:13:20.931Z,36.92
2023-01-01T12:15:58.868Z,36.57
2023-01-01T12:18:35.223Z,36.70
2023-01-01T12:21:08.605Z,36.19
2023-01-01T12:23:36.391Z,36.46
2023-01-01T12:26:09.081Z,36.62
2023-01-01T12:28:35.678Z,36.41
2023-01-01T12:31:21.283Z,36.30
2023-01-01T12:39:41.983Z,36.20
2023-01-01T12:42:43.828Z,36.46
2023-01-01T12:45:31.290Z,36.49
2023-01-01T12:48:16.841Z,36.67
2023-01-01T12:51:04.831Z,36.91
2023-01-01T12:53:47.027Z,36.82
2023-01-01T12:56:23.071Z,36.56
2023-01-01T12:59:02.147Z,36.38
2023-01-01T13:01:33.688Z,36.30
2023-01-01T13:04:04.575Z,36.07
2023-01-01T13:06:51.579Z,35.90
2023-01-01T13:09:25.705Z,35.93
2023-01-01T13:12:00.388Z,35.67
2023-01-01T13:14:27.724Z,35.67
2023-01-01T13:16:55.708Z,35.72
2023-01-01T13:19:41.111Z,35.41
2023-01-01T13:22:43.029Z,35.43
2023-01-01T13:25:10.849Z,35.61
2023-01-01T13:27:56.192Z,35.47
2023-01-01T13:30:38.180Z,35.16
2023-01-01T13:33:35.077Z,35.11
2023-01-01T13:36:19.590Z,35.14
2023-01-01T13:38:56.307Z,35.03
2023-01-01T13:41:43.894Z,35.18
2023-01-01T13:44:11.863Z,35.10
2023-01-01T13:46:44.411Z,35.34
2023-01-01T13:49:30.029Z,35.13
2023-01-01T13:52:07.442Z,34.99
2023-01-01T13:54:58.590Z,35.07
2023-01-01T13:57:37.173Z,34.87
2023-01-01T14:00:22.943Z,35.13
2023-01-01T14:03:02.957Z,34.93
2023-01-01T14:05:29.805Z,34.83
2023-01-01T14:07:56.666Z,34.96
2023-01-01T14:10:25.595Z,35.32
2023-01-01T14:12:53.668Z,35.50
2023-01-01T14:15:31.063Z,35.70
2023-01-01T14:18:00.295Z,35.72
2023-01-01T14:20:51.763Z,35.75
2023-01-01T14:23:28.414Z,35.79
2023-01-01T14:25:55.457Z,35.73
2023-01-01T14:28:33.478Z,35.90
2023-01-01T14:31:10.666Z,36.11
2023-01-01T14:33:38.552Z,35.86
2023-01-01T14:36:14.405Z,35.77
2023-01-01T14:38:47.100Z,36.04
2023-01-01T14:41:20.472Z,36.06
2023-01-01T14:43:50.640Z,35.88
2023-01-01T14:46:20.872Z,36.02
2023-01-01T14:48:51.842Z,35.82
2023-01-01T14:51:27.453Z,35.97
2023-01-01T14:53:58.341Z,35.60
2023-01-01T14:56:37.071Z,35.89
2023-01-01T14:59:08.328Z,35.79
2023-01-01T15:01:35.276Z,35.73
2023-01-01T15:04:04.837Z,35.95
2023-01-01T15:06:32.828Z,35.76
2023-01-01T15:08:59.734Z,35.74
2023-01-01T15:11:29.103Z,35.64
2023-01-01T15:13:59.264Z,35.80
2023-01-01T15:16:27.976Z,35.96
2023-01-01T15:18:58.060Z,35.75
2023-01-01T15:21:30.700Z,35.76
2023-01-01T15:24:03.265Z,35.85
2023-01-01T15:26:41.013Z,35.92
2023-01-01T15:29:11.854Z,35.88
2023-01-01T15:31:43.486Z,36.05
2023-01-01T15:34:35.056Z,36.14
2023-01-01T15:37:12.590Z,35.86
2023-01-01T15:39:49.799Z,35.91
2023-01-01T15:42:36.643Z,36.04
2023-01-01T15:45:18.325Z,35.79
2023-01-01T15:47:46.239Z,35.90
2023-01-01T15:50:26.342Z,35.96
2023-01-01T15:52:59.712Z,35.81
2023-01-01T15:55:29.752Z,35.83
2023-01-01T15:57:57.022Z,35.92
2023-01-01T16:00:33.073Z,35.87
2023-01-01T16:03:18.074Z,36.22
2023-01-01T16:05:51.745Z,35.94
2023-01-01T16:08:20.159Z,35.94
2023-01-01T16:10:48.326Z,36.00
2023-01-01T16:13:16.978Z,35.90
2023-01-01T16:16:18.296Z,35.75
2023-01-01T16:18:45.406Z,35.93
2023-01-01T16:21:12.046Z,35.95
2023-01-01T16:23:38.775Z,36.12
2023-01-01T16:26:05.417Z,35.89
2023-01-01T16:28:32.180Z,36.08
2023-01-01T16:30:58.951Z,36.25
2023-01-01T16:33:25.763Z,36.01
2023-01-01T16:35:52.440Z,36.17
2023-01-01T16:38:19.123Z,36.23
2023-01-01T16:40:45.768Z,36.17
2023-01-01T16:43:16.575Z,36.38
2023-01-01T16:45:44.484Z,36.30
2023-01-01T16:48:11.176Z,36.20
2023-01-01T16:50:37.784Z,36.48
2023-01-01T16:53:04.397Z,36.30
2023-01-01T16:55:31.063Z,36.49
2023-01-01T16:58:20.983Z,36.45
2023-01-01T17:00:44.651Z,36.45
2023-01-01T17:03:14.149Z,36.37
2023-01-01T17:05:44.656Z,36.39
2023-01-01T17:08:21.724Z,36.44
2023-01-01T17:11:10.000Z,36.63
2023-01-01T17:13:39.499Z,36.68
2023-01-01T17:16:12.416Z,36.61
2023-01-01T17:21:28.995Z,36.78
2023-01-01T17:23:58.168Z,37.04
2023-01-01T17:26:27.370Z,37.12
2023-01-01T17:29:00.345Z,37.00
2023-01-01T17:31:31.231Z,37.11
2023-01-01T17:33:58.071Z,36.87
2023-01-01T17:36:27.394Z,36.59
2023-01-01T17:38:54.455Z,36.85
2023-01-01T17:41:21.324Z,37.01
2023-01-01T17:43:51.161Z,36.78
2023-01-01T17:46:21.014Z,36.82
2023-01-01T17:48:50.361Z,36.76
2023-01-01T17:51:18.745Z,36.73
2023-01-01T17:53:45.520Z,36.97
2023-01-01T17:56:14.012Z,36.86
2023-01-01T17:58:45.975Z,36.81
2023-01-01T18:01:15.472Z,36.88
2023-01-01T18:03:42.130Z,36.95
2023-01-01T18:06:09.042Z,36.79
2023-01-01T18:08:35.826Z,36.90
2023-01-01T18:11:02.619Z,36.91
2023-01-01T18:13:29.742Z,36.74
2023-01-01T18:16:08.040Z,36.63
2023-01-01T18:18:39.902Z,36.75
2023-01-01T18:21:11.715Z,36.58
2023-01-01T18:23:39.988Z,36.65
2023-01-01T18:26:10.215Z,36.66
2023-01-01T18:28:40.056Z,36.52
2023-01-01T18:31:15.260Z,36.65
2023-01-01T18:33:42.667Z,36.61
2023-01-01T18:36:12.808Z,36.57
2023-01-01T18:38:42.826Z,36.61
2023-01-01T18:41:45.265Z,36.54
2023-01-01T18:44:18.548Z,36.40
2023-01-01T18:46:54.253Z,36.54
2023-01-01T18:49:24.025Z,36.30
2023-01-01T18:52:25.902Z,36.13
2023-01-01T18:55:14.398Z,36.22
2023-01-01T18:57:41.592Z,36.34
2023-01-01T19:00:26.400Z,36.22
2023-01-01T19:03:14.657Z,35.96
2023-01-01T19:05:42.039Z,36.15
2023-01-01T19:08:08.615Z,35.72
2023-01-01T19:10:42.629Z,35.96
2023-01-01T19:13:40.627Z,35.85
2023-01-01T19:16:25.984Z,35.83
2023-01-01T19:18:53.150Z,36.01
2023-01-01T19:21:22.918Z,35.94
2023-01-01T19:23:52.379Z,35.85
2023-01-01T19:26:29.684Z,35.85
2023-01-01T19:29:01.441Z,35.64
2023-01-01T19:31:28.365Z,35.51
2023-01-01T19:33:57.716Z,35.47
2023-01-01T19:36:24.517Z,35.65
2023-01-01T19:38:51.130Z,35.43
2023-01-01T19:41:17.854Z,35.71
2023-01-01T19:43:44.399Z,35.53
2023-01-01T19:46:11.330Z,35.30
2023-01-01T19:48:37.992Z,35.32
2023-01-01T19:51:08.646Z,35.39
2023-01-01T19:53:37.714Z,35.28
2023-01-01T19:56:07.568Z,35.47
2023-01-01T19:58:35.342Z,35.56
2023-01-01T20:01:03.148Z,35.15
2023-01-01T20:06:25.508Z,35.19
2023-01-01T20:08:53.830Z,35.36
2023-01-01T20:11:24.142Z,35.37
2023-01-01T20:13:50.898Z,35.47
2023-01-01T20:16:17.782Z,35.17
2023-01-01T20:18:49.009Z,35.13
2023-01-01T20:21:34.590Z,35.43
2023-01-01T20:24:02.948Z,35.34
2023-01-01T20:26:32.041Z,35.14
2023-01-01T20:29:23.298Z,35.16
2023-01-01T20:32:05.167Z,35.39
2023-01-01T20:34:32.120Z,35.25
2023-01-01T20:37:17.123Z,35.26
2023-01-01T20:39:43.942Z,35.27
2023-01-01T20:42:10.675Z,35.29
2023-01-01T20:44:37.517Z,35.13
2023-01-01T20:47:07.099Z,35.25
2023-01-01T20:49:33.739Z,35.16
2023-01-01T20:52:00.680Z,35.11
2023-01-01T20:54:27.311Z,35.20
2023-01-01T20:56:53.926Z,35.21
2023-01-01T20:59:38.093Z,35.09
2023-01-01T21:02:07.746Z,35.29
2023-01-01T21:04:39.396Z,35.17
2023-01-01T21:07:08.940Z,34.95
2023-01-01T21:09:37.083Z,35.16
2023-01-01T21:12:05.360Z,34.90
2023-01-01T21:14:32.090Z,35.08
2023-01-01T21:16:59.136Z,34.91
2023-01-01T21:19:27.229Z,35.28
2023-01-01T21:21:58.539Z,35.00
2023-01-01T21:24:28.185Z,35.08
2023-01-01T21:27:26.537Z,34.90
2023-01-01T21:29:57.159Z,35.16
2023-01-01T21:32:38.867Z,35.01
2023-01-01T21:35:32.683Z,34.97
2023-01-01T21:38:00.447Z,35.11
2023-01-01T21:40:55.009Z,34.92
2023-01-01T21:43:42.030Z,34.83
2023-01-01T21:46:08.696Z,35.04
2023-01-01T21:48:44.949Z,34.95
2023-01-01T21:53:40.880Z,35.05
2023-01-01T21:56:26.361Z,35.01
2023-01-01T21:59:11.696Z,34.83
2023-01-01T22:01:43.621Z,34.94
2023-01-01T22:04:10.342Z,34.31
2023-01-01T22:06:49.129Z,35.06
2023-01-01T22:09:29.580Z,34.92
2023-01-01T22:12:16.269Z,34.90
2023-01-01T22:14:51.609Z,34.86
2023-01-01T22:17:25.891Z,35.06
2023-01-01T22:19:56.465Z,35.57
2023-01-01T22:22:26.896Z,36.05
2023-01-01T22:24:58.737Z,36.60
2023-01-01T22:27:32.432Z,36.86
2023-01-01T22:30:13.670Z,37.05
2023-01-01T22:32:40.439Z,37.41
2023-01-01T22:35:07.224Z,37.95
2023-01-01T22:37:38.607Z,38.34
2023-01-01T22:40:14.835Z,38.76
2023-01-01T22:42:41.455Z,38.38
2023-01-01T22:45:15.816Z,38.37
2023-01-01T22:47:45.752Z,38.00
2023-01-01T22:50:38.787Z,37.54
2023-01-01T22:53:05.806Z,37.65
2023-01-01T22:55:32.419Z,37.41
2023-01-01T22:57:59.194Z,37.43
2023-01-01T23:00:25.813Z,37.41
2023-01-01T23:02:52.614Z,37.39
2023-01-01T23:05:19.334Z,37.40
2023-01-01T23:07:46.453Z,36.94
2023-01-01T23:10:14.933Z,37.05
2023-01-01T23:12:41.805Z,37.11
2023-01-01T23:15:27.201Z,36.89
2023-01-01T23:17:54.173Z,37.01
2023-01-01T23:20:20.780Z,36.67
2023-01-01T23:22:51.301Z,36.63
2023-01-01T23:25:19.675Z,36.75
2023-01-01T23:27:47.967Z,36.75
2023-01-01T23:30:14.923Z,36.96
2023-01-01T23:32:42.336Z,37.04
2023-01-01T23:35:10.587Z,36.78
2023-01-01T23:37:38.157Z,37.20
2023-01-01T23:40:06.013Z,37.03
2023-01-01T23:42:32.697Z,37.17
2023-01-01T23:44:59.336Z,37.37
2023-01-01T23:47:26.187Z,37.35
2023-01-01T23:49:52.989Z,37.12
2023-01-01T23:52:19.535Z,37.15
2023-01-01T23:54:46.404Z,36.93
2023-01-01T23:57:14.123Z,37.17
2023-01-01T23:59:40.721Z,37.07
